Time;durP1;ratioP1;P1;durP2;ratioP2;P2;SDS_P1;SDS_P2;PMS_P1;PMS_P2;Temp;Humidity;BMP_temperature;BMP_pressure;BME280_temperature;BME280_humidity;BME280_pressure;Samples;Min_cycle;Max_cycle;Signal;HPM_P1;HPM_P2
2023/08/23 00:00:30;;;;;;;4.60;4.03;;;24.10;63.50;;;25.95;46.97;97947.28;5030833;28;20048;-58
2023/08/23 00:02:57;;;;;;;5.57;4.68;;;24.10;63.70;;;25.89;46.94;97944.44;5031168;28;20424;-58
2023/08/23 00:05:25;;;;;;;6.90;4.50;;;24.00;64.10;;;25.85;47.24;97954.22;5031031;28;20067;-58
2023/08/23 00:07:53;;;;;;;5.30;4.80;;;23.90;64.50;;;25.79;47.38;97941.59;5031605;28;20045;-58
2023/08/23 00:10:20;;;;;;;6.57;4.38;;;23.90;64.70;;;25.74;47.80;97933.34;5030577;28;20048;-58
2023/08/23 00:12:53;;;;;;;5.63;4.45;;;23.90;65.10;;;25.73;47.61;97937.97;5030911;28;20045;-58
2023/08/23 00:15:20;;;;;;;9.40;5.53;;;23.80;65.10;;;25.69;47.88;97936.81;5029846;28;20053;-58
2023/08/23 00:17:48;;;;;;;7.05;4.30;;;23.80;65.30;;;25.68;47.91;97937.88;5030745;28;20060;-58
2023/08/23 00:20:16;;;;;;;8.45;5.00;;;23.80;65.50;;;25.63;48.25;97937.84;5030832;28;20057;-58
2023/08/23 00:22:44;;;;;;;5.43;4.80;;;23.70;66.00;;;25.60;48.14;97929.34;5030609;28;20037;-58
2023/08/23 00:25:11;;;;;;;4.93;4.32;;;23.70;66.30;;;25.57;48.29;97933.41;5030733;28;20046;-57
2023/08/23 00:27:39;;;;;;;5.38;4.38;;;23.70;66.40;;;25.57;48.56;97927.09;5030864;28;20037;-58
2023/08/23 00:30:07;;;;;;;5.80;4.88;;;23.80;66.30;;;25.57;48.42;97924.38;5029295;28;20046;-58
2023/08/23 00:32:35;;;;;;;8.85;4.60;;;23.70;66.50;;;25.53;48.41;97921.31;5029251;28;20052;-58
2023/08/23 00:35:05;;;;;;;7.10;4.95;;;23.70;66.80;;;25.50;49.09;97919.13;5030141;28;20051;-58
2023/08/23 00:37:32;;;;;;;5.72;4.80;;;23.60;67.10;;;25.49;48.79;97918.28;5021375;28;20046;-58
2023/08/23 00:40:01;;;;;;;5.50;4.88;;;23.60;67.10;;;25.46;48.62;97921.50;5030689;28;20037;-57
2023/08/23 00:42:31;;;;;;;6.10;4.60;;;23.60;67.20;;;25.44;49.11;97914.66;5026274;28;20048;-58
2023/08/23 00:44:59;;;;;;;6.75;4.72;;;23.60;67.50;;;25.40;48.78;97917.06;5031186;28;20037;-58
2023/08/23 00:47:27;;;;;;;7.25;4.70;;;23.50;67.90;;;25.34;49.37;97924.34;5029783;28;20049;-58
2023/08/23 00:49:57;;;;;;;9.48;4.85;;;23.40;68.20;;;25.31;49.11;97919.38;5028621;28;20056;-58
2023/08/23 00:52:25;;;;;;;6.70;5.00;;;23.40;68.30;;;25.26;49.22;97922.03;5030572;28;20049;-58
2023/08/23 00:54:57;;;;;;;5.13;4.68;;;23.40;68.90;;;25.27;49.47;97925.59;5029293;28;20054;-56
2023/08/23 00:57:25;;;;;;;5.55;5.00;;;23.40;69.00;;;25.24;49.60;97926.06;5028978;28;20060;-58
2023/08/23 00:59:54;;;;;;;8.45;4.93;;;23.40;68.90;;;25.21;49.30;97918.38;5030504;28;20045;-58
2023/08/23 01:02:22;;;;;;;7.55;5.03;;;23.40;69.00;;;25.21;49.76;97919.19;5028312;28;20049;-58
2023/08/23 01:04:50;;;;;;;7.30;5.32;;;23.40;69.10;;;25.18;49.68;97922.41;5029856;28;20053;-58
2023/08/23 01:07:37;;;;;;;10.90;5.20;;;23.30;69.50;;;25.14;50.36;97915.81;5030499;28;20053;-58
2023/08/23 01:10:51;;;;;;;6.60;5.15;;;23.30;70.10;;;25.14;50.03;97915.81;5029405;28;20038;-58
2023/08/23 01:13:46;;;;;;;8.27;5.15;;;23.30;70.20;;;25.11;49.91;97917.16;5030974;28;20072;-58
2023/08/23 01:16:15;;;;;;;6.25;5.60;;;23.30;70.80;;;25.11;50.18;97919.06;5034827;28;20068;-58
2023/08/23 01:18:43;;;;;;;7.47;5.32;;;23.30;70.40;;;25.06;50.44;97919.78;5024643;28;20060;-58
2023/08/23 01:21:17;;;;;;;5.20;4.43;;;23.20;70.80;;;25.03;50.53;97922.16;5016183;28;20056;-58
2023/08/23 01:23:44;;;;;;;;;;;23.10;71.20;;;25.00;50.50;97928.13;5033529;28;20504;-57
2023/08/23 01:26:12;;;;;;;6.20;5.60;;;23.10;72.30;;;25.02;50.37;97934.97;5032714;28;19921;-58
2023/08/23 01:28:39;;;;;;;6.28;5.07;;;23.10;71.80;;;24.99;50.64;97932.75;5033962;28;20041;-58
2023/08/23 01:31:10;;;;;;;10.20;6.57;;;23.10;71.50;;;24.97;50.62;97929.47;5033510;28;20421;-58
2023/08/23 01:33:51;;;;;;;6.35;5.40;;;23.10;71.80;;;24.91;50.94;97930.41;5008684;28;20037;-58
2023/08/23 01:36:30;;;;;;;9.45;5.50;;;23.00;72.40;;;24.87;51.00;97934.72;5025143;28;20483;-58
2023/08/23 01:38:58;;;;;;;6.40;5.22;;;23.00;72.80;;;24.79;51.71;97935.13;5033095;28;20484;-58
2023/08/23 01:41:26;;;;;;;7.13;5.65;;;22.90;73.20;;;24.78;51.37;97939.75;5032034;28;20481;-58
2023/08/23 01:43:54;;;;;;;6.90;5.35;;;22.90;73.20;;;24.73;51.64;97936.94;5032461;28;20041;-58
2023/08/23 01:46:21;;;;;;;7.38;5.97;;;22.90;73.60;;;24.71;51.80;97944.53;5031391;28;20049;-58
2023/08/23 01:48:49;;;;;;;6.82;5.97;;;22.80;73.80;;;24.72;51.67;97938.03;5032227;28;20052;-58
2023/08/23 01:51:17;;;;;;;5.90;5.05;;;22.90;73.70;;;24.71;51.54;97942.63;5032135;28;20054;-58
2023/08/23 01:53:44;;;;;;;7.90;4.85;;;22.90;73.70;;;24.69;51.71;97938.50;5031984;28;20052;-58
2023/08/23 01:56:12;;;;;;;6.18;5.15;;;22.90;73.90;;;24.66;51.70;97934.38;5032368;28;20501;-58
2023/08/23 01:58:39;;;;;;;6.75;5.20;;;22.80;74.00;;;24.63;51.80;97931.31;5032125;28;20049;-58
2023/08/23 02:01:07;;;;;;;7.50;5.20;;;22.80;74.10;;;24.63;51.91;97928.59;5031372;28;20045;-58
2023/08/23 02:03:35;;;;;;;5.45;4.95;;;22.80;74.10;;;24.60;52.20;97929.06;5032979;28;20033;-58
2023/08/23 02:06:02;;;;;;;6.40;5.13;;;22.70;74.30;;;24.55;52.13;97930.63;5033201;28;20512;-58
2023/08/23 02:08:31;;;;;;;8.52;5.88;;;22.70;74.70;;;24.51;52.13;97926.75;5031561;28;20367;-58
2023/08/23 02:10:59;;;;;;;6.07;4.93;;;22.60;75.00;;;24.48;52.08;97926.38;5032137;28;20531;-58
2023/08/23 02:13:27;;;;;;;6.88;5.88;;;22.60;75.00;;;24.50;52.10;97924.25;5032741;28;20048;-59
2023/08/23 02:15:54;;;;;;;8.45;5.97;;;22.70;74.70;;;24.48;52.15;97929.91;5033357;28;20042;-58
2023/08/23 02:18:22;;;;;;;6.88;5.80;;;22.70;75.70;;;24.48;52.31;97921.75;5031245;28;20061;-58
2023/08/23 02:20:59;;;;;;;7.35;5.53;;;22.70;74.60;;;24.43;52.35;97918.97;5031116;28;20045;-58
2023/08/23 02:23:27;;;;;;;7.32;5.78;;;22.60;75.40;;;24.39;52.60;97925.97;5031462;28;20068;-58
2023/08/23 02:25:56;;;;;;;8.07;6.10;;;22.50;75.50;;;24.36;52.49;97924.53;5032055;28;20492;-58
2023/08/23 02:28:23;;;;;;;6.97;5.30;;;22.50;75.40;;;24.36;52.48;97919.09;5030978;28;20049;-58
2023/08/23 02:30:51;;;;;;;10.60;6.18;;;22.50;75.40;;;24.32;52.42;97926.09;5031283;28;20034;-58
2023/08/23 02:33:19;;;;;;;7.30;5.32;;;22.50;75.30;;;24.31;52.40;97927.19;5031212;28;20056;-58
2023/08/23 02:35:47;;;;;;;11.02;6.55;;;22.50;75.40;;;24.27;52.55;97925.16;5030862;28;20045;-58
2023/08/23 02:38:15;;;;;;;5.57;5.03;;;22.40;75.60;;;24.24;52.75;97922.94;5032680;28;20444;-58
2023/08/23 02:40:43;;;;;;;7.55;5.88;;;22.40;75.80;;;24.22;52.79;97919.66;5031389;28;20056;-58
2023/08/23 02:43:11;;;;;;;9.93;6.55;;;22.40;76.00;;;24.18;53.05;97917.41;5031090;28;20505;-58
2023/08/23 02:45:42;;;;;;;7.15;6.15;;;22.40;76.20;;;24.17;53.04;97913.03;5031766;28;20037;-58
2023/08/23 02:48:10;;;;;;;7.65;6.63;;;22.40;76.50;;;24.15;52.98;97915.16;5031109;28;20428;-57
2023/08/23 02:50:38;;;;;;;7.68;6.45;;;22.30;76.50;;;24.11;53.21;97918.63;5032408;28;20045;-58
2023/08/23 02:53:06;;;;;;;7.75;6.78;;;22.30;76.70;;;24.12;53.22;97910.22;5032157;28;20056;-59
2023/08/23 02:55:38;;;;;;;6.22;5.63;;;22.30;76.70;;;24.10;53.15;97904.19;5031988;28;20068;-58
2023/08/23 02:58:07;;;;;;;7.72;6.25;;;22.30;77.00;;;24.06;53.43;97908.47;5031480;28;20064;-58
2023/08/23 03:00:35;;;;;;;7.55;5.93;;;22.20;77.00;;;24.04;53.38;97907.88;5031138;28;20056;-58
2023/08/23 03:03:03;;;;;;;7.30;6.13;;;22.20;77.30;;;24.03;53.55;97917.09;5031821;28;20413;-57
2023/08/23 03:05:31;;;;;;;7.50;5.93;;;22.20;77.50;;;24.01;53.51;97915.69;5030557;28;20421;-58
2023/08/23 03:07:58;;;;;;;11.57;6.18;;;22.20;77.60;;;24.01;53.60;97918.41;5014121;28;20493;-58
2023/08/23 03:10:26;;;;;;;6.07;5.47;;;22.20;77.60;;;24.02;53.64;97925.50;5038383;28;20049;-58
2023/08/23 03:12:54;;;;;;;9.75;6.95;;;22.20;77.70;;;23.99;53.85;97926.81;5031742;28;20116;-58
2023/08/23 03:15:21;;;;;;;8.23;6.95;;;22.20;77.90;;;23.94;53.69;97921.25;5031690;28;20072;-58
2023/08/23 03:17:49;;;;;;;10.38;6.53;;;22.10;78.30;;;23.92;53.82;97928.81;5030317;28;20053;-58
2023/08/23 03:20:17;;;;;;;9.05;6.68;;;22.10;78.60;;;23.87;54.10;97926.03;5030170;28;20425;-57
2023/08/23 03:22:45;;;;;;;9.80;7.00;;;22.00;78.90;;;23.80;54.19;97919.88;5030080;28;20048;-58
2023/08/23 03:25:13;;;;;;;10.45;6.40;;;21.90;79.40;;;23.77;54.27;97932.03;5030963;28;20042;-58
2023/08/23 03:27:41;;;;;;;8.43;6.15;;;21.90;79.90;;;23.71;54.40;97919.38;5030806;28;20053;-57
2023/08/23 03:30:10;;;;;;;7.80;6.85;;;21.80;80.10;;;23.70;54.45;97921.28;5029600;28;20048;-58
2023/08/23 03:32:37;;;;;;;9.10;6.95;;;21.80;80.30;;;23.71;54.34;97916.66;5029784;28;20045;-57
2023/08/23 03:35:06;;;;;;;9.60;6.65;;;21.90;80.10;;;23.74;54.48;97910.75;5030566;28;20049;-57
2023/08/23 03:37:35;;;;;;;7.43;6.60;;;21.90;79.70;;;23.73;54.39;97900.94;5030534;28;20053;-58
2023/08/23 03:40:04;;;;;;;7.70;6.88;;;21.90;79.40;;;23.67;54.37;97902.75;5029469;28;20038;-58
2023/08/23 03:42:32;;;;;;;8.30;6.80;;;21.80;79.70;;;23.65;54.49;97895.88;5026361;28;20505;-58
2023/08/23 03:44:59;;;;;;;8.50;6.40;;;21.80;79.90;;;23.63;54.51;97904.28;5029621;28;20048;-58
2023/08/23 03:47:27;;;;;;;6.60;5.85;;;21.80;79.70;;;23.62;54.55;97897.19;5030591;28;20049;-57
2023/08/23 03:49:54;;;;;;;6.80;6.10;;;21.80;79.80;;;23.62;54.51;97904.53;5031374;28;20412;-58
2023/08/23 03:52:22;;;;;;;8.50;6.18;;;21.80;80.10;;;23.59;54.58;97903.94;5031132;28;20048;-58
2023/08/23 03:54:49;;;;;;;8.38;6.20;;;21.80;80.30;;;23.58;54.85;97906.91;5022159;28;20053;-58
2023/08/23 03:57:17;;;;;;;8.25;6.78;;;21.80;80.40;;;23.59;54.71;97911.25;5030567;28;20429;-58
2023/08/23 03:59:45;;;;;;;8.25;7.35;;;21.80;80.10;;;23.55;54.76;97916.38;5031005;28;20065;-57
2023/08/23 04:02:12;;;;;;;6.95;6.05;;;21.70;79.90;;;23.52;54.88;97918.72;5030800;28;20052;-57
2023/08/23 04:04:40;;;;;;;10.48;6.57;;;21.70;80.50;;;23.47;54.93;97918.59;5029329;28;20049;-58
2023/08/23 04:07:09;;;;;;;8.77;7.05;;;21.60;80.50;;;23.46;54.99;97920.50;5031117;28;20041;-58
2023/08/23 04:09:36;;;;;;;8.65;7.15;;;21.60;80.80;;;23.41;55.42;97914.13;5030842;28;20037;-58
2023/08/23 04:12:08;;;;;;;9.05;7.25;;;21.60;81.20;;;23.37;55.08;97905.63;5030737;28;20041;-58
2023/08/23 04:14:36;;;;;;;10.38;8.50;;;21.50;81.80;;;23.37;55.35;97900.19;5030801;28;20050;-57
2023/08/23 04:17:05;;;;;;;8.75;7.13;;;21.50;81.60;;;23.36;55.19;97902.09;5030014;28;20052;-58
2023/08/23 04:19:32;;;;;;;10.48;7.22;;;21.50;81.40;;;23.35;55.11;97902.31;5029182;28;20053;-58
2023/08/23 04:22:00;;;;;;;8.80;7.20;;;21.50;81.50;;;23.34;55.03;97909.66;5029234;28;20041;-58
2023/08/23 04:24:28;;;;;;;7.32;6.30;;;21.50;82.30;;;23.37;55.25;97916.47;5029537;28;20049;-58
2023/08/23 04:26:55;;;;;;;7.53;6.35;;;21.60;81.20;;;23.34;55.41;97916.94;5029452;28;20052;-58
2023/08/23 04:29:23;;;;;;;8.75;7.57;;;21.60;81.30;;;23.32;55.46;97913.63;5029985;28;20041;-58
2023/08/23 04:31:51;;;;;;;9.07;7.00;;;21.50;81.50;;;23.28;55.57;97913.28;5029163;28;20068;-58
2023/08/23 04:34:26;;;;;;;9.70;6.90;;;21.50;81.70;;;23.29;55.36;97916.84;5029405;28;20050;-58
2023/08/23 04:36:53;;;;;;;8.40;7.53;;;21.50;81.80;;;23.31;55.42;97922.88;5030727;28;20052;-58
2023/08/23 04:39:21;;;;;;;13.50;7.03;;;21.60;81.60;;;23.30;55.54;97922.06;5029110;28;20053;-57
2023/08/23 04:41:49;;;;;;;9.57;6.90;;;21.50;81.60;;;23.27;55.56;97927.13;5029283;28;20056;-58
2023/08/23 04:44:18;;;;;;;9.57;7.47;;;21.50;81.80;;;23.23;55.47;97928.66;5029676;28;20045;-58
2023/08/23 04:46:46;;;;;;;10.55;7.80;;;21.40;82.00;;;23.22;55.89;97924.28;5033665;28;20041;-58
2023/08/23 04:49:13;;;;;;;9.52;6.63;;;21.40;82.30;;;23.25;55.46;97929.25;5034427;28;20037;-58
2023/08/23 04:51:42;;;;;;;9.55;7.38;;;21.50;82.10;;;23.26;55.85;97931.72;5033068;28;20054;-58
2023/08/23 04:54:09;;;;;;;8.82;6.85;;;21.50;81.90;;;23.26;55.80;97930.88;5034448;28;20049;-58
2023/08/23 04:56:37;;;;;;;6.85;6.15;;;21.50;81.90;;;23.27;55.75;97929.84;5032548;28;20061;-58
2023/08/23 04:59:05;;;;;;;8.07;7.03;;;21.50;81.80;;;23.30;55.66;97932.91;5016865;28;20045;-58
2023/08/23 05:01:32;;;;;;;7.32;6.55;;;21.50;81.70;;;23.33;55.64;97943.28;5032850;28;20064;-57
2023/08/23 05:04:00;;;;;;;12.57;7.57;;;21.60;81.60;;;23.33;55.51;97935.13;5033585;28;20046;-58
2023/08/23 05:06:28;;;;;;;7.38;6.30;;;21.60;81.30;;;23.35;55.23;97934.91;5033691;28;20072;-58
2023/08/23 05:08:56;;;;;;;8.32;7.32;;;21.60;81.30;;;23.27;55.53;97930.66;5032893;28;20048;-56
2023/08/23 05:11:25;;;;;;;8.38;7.57;;;21.50;81.70;;;23.24;55.56;97933.84;5034273;28;20053;-58
2023/08/23 05:13:53;;;;;;;7.97;7.18;;;21.50;81.90;;;23.25;55.85;97932.78;5032747;28;20452;-58
2023/08/23 05:16:21;;;;;;;8.15;7.43;;;21.50;81.70;;;23.28;55.67;97926.03;5033013;28;20508;-58
2023/08/23 05:18:49;;;;;;;8.73;7.25;;;21.50;81.30;;;23.32;55.51;97935.38;5033329;28;20497;-58
2023/08/23 05:21:16;;;;;;;9.70;6.88;;;21.60;81.30;;;23.36;55.41;97940.13;5033722;28;20501;-58
2023/08/23 05:23:44;;;;;;;7.88;7.18;;;21.70;81.90;;;23.41;55.68;97936.69;5032091;28;20053;-58
2023/08/23 05:26:12;;;;;;;8.15;7.25;;;21.70;80.80;;;23.41;55.57;97935.84;5033208;28;20052;-58
2023/08/23 05:28:40;;;;;;;9.05;6.45;;;21.70;80.80;;;23.35;55.57;97927.59;5032591;28;20413;-58
2023/08/23 05:31:08;;;;;;;8.93;6.95;;;21.70;81.00;;;23.41;55.55;97925.00;5031526;28;20398;-58
2023/08/23 05:33:37;;;;;;;8.95;7.38;;;21.70;80.70;;;23.44;55.51;97922.63;5032229;28;20524;-58
2023/08/23 05:36:05;;;;;;;12.65;7.78;;;21.80;80.40;;;23.47;55.42;97932.19;5032863;28;20064;-58
2023/08/23 05:38:33;;;;;;;7.80;6.53;;;21.80;80.20;;;23.51;55.34;97923.31;5031792;28;20054;-59
2023/08/23 05:41:02;;;;;;;10.32;6.63;;;21.90;80.00;;;23.53;55.31;97936.66;5030887;28;20509;-60
2023/08/23 05:43:30;;;;;;;11.25;8.00;;;21.90;79.70;;;23.54;55.29;97938.34;5032034;28;20045;-58
2023/08/23 05:45:58;;;;;;;7.60;6.85;;;21.90;79.70;;;23.49;55.31;97936.31;5023056;28;20056;-57
2023/08/23 05:48:26;;;;;;;8.25;7.18;;;21.90;79.80;;;23.46;55.47;97941.38;5048542;28;20052;-55
2023/08/23 05:50:53;;;;;;;9.23;7.05;;;21.80;80.00;;;23.47;55.62;97948.50;5032878;28;20049;-57
2023/08/23 05:53:21;;;;;;;8.82;7.30;;;21.80;80.00;;;23.49;55.76;97949.91;5033347;28;20053;-58
2023/08/23 05:55:49;;;;;;;8.52;7.72;;;21.90;80.30;;;23.50;55.60;97950.75;5033169;28;20037;-58
2023/08/23 05:58:18;;;;;;;7.47;6.35;;;21.90;80.30;;;23.52;55.54;97952.16;5031675;28;20049;-57
2023/08/23 06:00:49;;;;;;;9.60;7.43;;;21.90;79.80;;;23.50;55.40;97948.84;5033075;28;20441;-58
2023/08/23 06:03:17;;;;;;;8.27;7.40;;;21.90;79.80;;;23.53;55.41;97952.97;5033084;28;20045;-58
2023/08/23 06:05:45;;;;;;;9.57;7.93;;;21.90;79.90;;;23.58;55.39;97953.09;5032888;28;20045;-59
2023/08/23 06:08:13;;;;;;;7.68;6.65;;;22.00;79.50;;;23.62;55.24;97956.97;5031939;28;20045;-58
2023/08/23 06:10:40;;;;;;;8.18;6.95;;;22.10;79.40;;;23.67;55.20;97962.53;5032895;28;20512;-58
2023/08/23 06:13:08;;;;;;;9.02;6.72;;;22.10;78.70;;;23.65;54.99;97959.25;5032864;28;20072;-55
2023/08/23 06:15:36;;;;;;;7.90;7.00;;;22.10;78.30;;;23.68;54.92;97947.06;5033193;28;20050;-58
2023/08/23 06:18:04;;;;;;;8.60;7.35;;;22.10;78.30;;;23.74;54.94;97951.53;5024690;28;20425;-58
2023/08/23 06:20:32;;;;;;;11.18;7.22;;;22.20;78.30;;;23.80;54.96;97953.31;5033186;28;20050;-53
2023/08/23 06:22:59;;;;;;;10.13;6.95;;;22.30;78.30;;;23.84;54.86;97946.34;5031337;28;20489;-55
2023/08/23 06:25:27;;;;;;;9.25;6.22;;;22.40;77.80;;;23.91;54.49;97946.22;5032740;28;20049;-56
2023/08/23 06:27:55;;;;;;;7.47;6.68;;;22.50;76.90;;;23.94;54.28;97941.13;5033048;28;20046;-58
2023/08/23 06:30:23;;;;;;;8.75;6.22;;;22.50;76.60;;;23.99;54.46;97943.13;5032503;28;20057;-56
2023/08/23 06:32:50;;;;;;;8.00;6.90;;;22.60;76.40;;;24.06;54.19;97949.25;5047685;28;20056;-57
2023/08/23 06:35:20;;;;;;;7.72;6.72;;;22.70;77.10;;;24.10;54.25;97950.44;5032787;28;20049;-57
2023/08/23 06:37:48;;;;;;;8.90;7.25;;;22.80;75.60;;;24.16;53.99;97948.63;5032599;28;20054;-55
2023/08/23 06:40:16;;;;;;;7.50;6.75;;;22.80;75.30;;;24.17;53.61;97969.31;5032399;28;20041;-58
2023/08/23 06:42:44;;;;;;;7.90;7.10;;;22.70;75.10;;;24.15;53.51;97958.66;5029821;28;20053;-58
2023/08/23 06:45:12;;;;;;;9.55;6.82;;;22.60;75.00;;;24.17;53.99;97962.00;5029239;28;20044;-58
2023/08/23 06:47:39;;;;;;;9.40;6.22;;;22.60;75.50;;;24.21;53.77;97958.78;5032441;28;20049;-57
2023/08/23 06:50:08;;;;;;;7.22;6.53;;;22.80;75.70;;;24.26;54.27;97959.72;5023424;28;20057;-56
2023/08/23 06:52:40;;;;;;;8.63;6.40;;;22.80;75.90;;;24.32;53.88;97957.91;5030912;28;20048;-57
2023/08/23 06:55:08;;;;;;;9.73;6.95;;;22.90;75.70;;;24.36;53.85;97954.47;5024219;28;20428;-58
2023/08/23 06:57:35;;;;;;;8.40;6.93;;;22.90;75.80;;;24.42;53.88;97954.56;5032312;28;20052;-58
2023/08/23 07:00:04;;;;;;;7.75;6.38;;;23.00;75.90;;;24.46;53.95;97950.28;5031761;28;20041;-58
2023/08/23 07:02:31;;;;;;;10.68;6.82;;;23.00;75.70;;;24.50;53.77;97951.44;5032063;28;20037;-58
2023/08/23 07:04:59;;;;;;;7.10;5.82;;;23.10;75.70;;;24.53;53.64;97948.28;5030651;28;20053;-58
2023/08/23 07:07:27;;;;;;;7.97;6.22;;;23.10;75.40;;;24.55;53.85;97949.69;5031661;28;20042;-58
2023/08/23 07:09:54;;;;;;;8.32;7.28;;;23.20;75.90;;;24.59;53.84;97952.75;5029511;28;20053;-58
2023/08/23 07:12:22;;;;;;;8.40;6.35;;;23.30;75.10;;;24.62;53.81;97957.72;5030748;28;20053;-58
2023/08/23 07:14:49;;;;;;;13.68;6.75;;;23.30;74.90;;;24.65;53.71;97954.47;5031742;28;20046;-58
2023/08/23 07:17:17;;;;;;;8.23;6.75;;;23.30;74.40;;;24.65;53.56;97959.13;5031919;28;20049;-58
2023/08/23 07:19:47;;;;;;;9.68;6.97;;;23.30;74.60;;;24.67;53.70;97956.97;5013766;28;20050;-58
2023/08/23 07:22:15;;;;;;;9.00;7.07;;;23.30;74.60;;;24.65;53.31;97959.94;5032299;28;20045;-58
2023/08/23 07:24:43;;;;;;;7.20;6.50;;;23.20;74.40;;;24.67;53.72;97965.97;5030378;28;20524;-58
2023/08/23 07:27:10;;;;;;;8.60;7.20;;;23.20;74.90;;;24.70;53.84;97970.09;5023685;28;20042;-58
2023/08/23 07:29:38;;;;;;;10.35;7.22;;;23.30;74.90;;;24.71;53.55;97969.03;5031512;28;20544;-58
2023/08/23 07:32:06;;;;;;;7.35;6.65;;;23.30;74.80;;;24.71;53.59;97969.84;5030978;28;20045;-58
2023/08/23 07:34:33;;;;;;;9.75;7.65;;;23.30;74.70;;;24.77;53.47;97974.28;5029966;28;20045;-58
2023/08/23 07:37:01;;;;;;;7.00;6.35;;;23.40;74.70;;;24.85;53.34;97975.78;5031401;28;20049;-58
2023/08/23 07:39:28;;;;;;;7.30;6.60;;;23.50;74.50;;;24.89;53.16;97976.97;5031424;28;20056;-58
2023/08/23 07:41:56;;;;;;;9.57;6.35;;;23.50;74.20;;;24.90;53.07;97970.44;5030954;28;20050;-57
2023/08/23 07:44:24;;;;;;;7.43;6.18;;;23.70;73.90;;;24.91;53.20;97972.13;5031525;28;20056;-58
2023/08/23 07:46:53;;;;;;;8.18;6.78;;;23.60;73.60;;;24.96;53.16;97968.63;5029554;28;20049;-58
2023/08/23 07:49:20;;;;;;;9.45;7.35;;;23.60;73.50;;;25.00;52.59;97977.97;5030666;28;20050;-58
2023/08/23 07:51:48;;;;;;;10.20;7.07;;;23.70;73.20;;;24.99;53.01;97970.88;5029753;28;20049;-58
2023/08/23 07:54:16;;;;;;;8.48;6.90;;;23.70;73.20;;;25.01;53.00;97978.78;5032119;28;20049;-59
2023/08/23 07:56:43;;;;;;;8.07;6.95;;;23.70;73.30;;;25.00;53.28;97977.16;5031908;28;20053;-59
2023/08/23 07:59:11;;;;;;;10.18;7.25;;;23.70;73.80;;;25.07;52.79;97978.63;5031915;28;20052;-59
2023/08/23 08:01:39;;;;;;;6.88;6.28;;;23.70;73.50;;;25.14;52.72;97973.88;5031889;28;20041;-59
2023/08/23 08:04:06;;;;;;;8.52;6.00;;;23.90;73.10;;;25.20;52.54;97966.56;5031755;28;20424;-59
2023/08/23 08:06:34;;;;;;;6.95;6.13;;;23.90;72.70;;;25.24;52.85;97965.06;5032114;28;20045;-60
2023/08/23 08:09:01;;;;;;;6.60;5.72;;;24.00;72.30;;;25.32;52.89;97982.91;5031116;28;20056;-59
2023/08/23 08:11:29;;;;;;;6.82;5.93;;;24.10;72.40;;;25.37;52.43;97980.22;5029609;28;20048;-58
2023/08/23 08:13:57;;;;;;;8.38;6.28;;;24.20;72.10;;;25.42;51.89;97979.50;5031105;28;20046;-56
2023/08/23 08:16:25;;;;;;;7.60;6.75;;;24.20;71.40;;;25.47;52.32;97972.19;5038468;28;20050;-57
2023/08/23 08:18:52;;;;;;;9.88;6.45;;;24.30;71.00;;;25.56;51.93;97985.44;5029671;28;20486;-59
2023/08/23 08:21:20;;;;;;;7.10;5.70;;;24.40;70.90;;;25.59;51.84;97979.47;5037379;28;20045;-57
2023/08/23 08:23:48;;;;;;;7.88;6.35;;;24.40;70.70;;;25.63;51.96;97980.59;5037075;28;20168;-57
2023/08/23 08:26:16;;;;;;;9.50;6.57;;;24.50;71.00;;;25.64;52.50;97983.09;5034974;28;20045;-57
2023/08/23 08:28:45;;;;;;;7.13;6.22;;;24.50;71.80;;;25.67;52.09;97982.59;5034387;28;20501;-57
2023/08/23 08:31:13;;;;;;;9.13;6.72;;;24.50;71.30;;;25.73;52.45;97981.59;5034509;28;20044;-56
2023/08/23 08:33:42;;;;;;;10.05;6.13;;;24.60;71.50;;;25.78;52.04;97972.66;5035066;28;20056;-57
2023/08/23 08:36:09;;;;;;;9.32;6.18;;;24.60;71.00;;;25.77;52.11;97975.66;5034948;28;20056;-55
2023/08/23 08:38:39;;;;;;;9.52;6.32;;;24.60;70.70;;;25.82;51.65;97978.44;5034921;28;20045;-61
2023/08/23 08:41:08;;;;;;;9.20;5.97;;;24.60;70.80;;;25.87;52.05;97976.59;5033289;28;20421;-61
2023/08/23 08:43:36;;;;;;;8.55;6.47;;;24.70;71.10;;;25.92;51.87;97975.88;5033491;28;20053;-61
2023/08/23 08:46:06;;;;;;;10.23;6.85;;;24.70;71.00;;;25.94;51.86;97976.47;5034611;28;20049;-61
2023/08/23 08:48:34;;;;;;;7.80;6.68;;;24.70;70.50;;;25.96;51.87;97978.91;5034749;28;20078;-61
2023/08/23 08:51:03;;;;;;;8.25;5.80;;;24.80;70.40;;;26.00;52.03;97975.44;5033229;28;20060;-61
2023/08/23 08:53:32;;;;;;;9.07;6.32;;;24.90;70.50;;;26.09;51.88;97978.53;5033563;28;20042;-61
2023/08/23 08:56:00;;;;;;;8.40;6.05;;;25.00;70.10;;;26.15;51.31;97984.88;5034531;28;20064;-61
2023/08/23 08:58:30;;;;;;;7.32;5.55;;;25.00;69.00;;;26.20;51.19;97979.50;5034045;28;20053;-61
2023/08/23 09:01:04;;;;;;;6.90;5.90;;;25.10;68.60;;;26.25;50.50;97985.00;5034327;28;20041;-61
2023/08/23 09:03:31;;;;;;;;;;;25.20;68.10;;;26.32;51.14;97985.63;5033514;28;20049;-60
2023/08/23 09:05:59;;;;;;;7.47;5.28;;;25.20;66.80;;;26.40;50.02;97987.91;5031439;28;19921;-61
2023/08/23 09:08:27;;;;;;;7.78;5.40;;;25.30;67.30;;;26.44;49.62;97990.97;5032448;28;20053;-60
2023/08/23 09:10:54;;;;;;;10.55;6.00;;;25.40;66.70;;;26.49;49.67;97993.75;5031607;28;20050;-61
2023/08/23 09:13:22;;;;;;;7.93;5.82;;;25.40;66.50;;;26.52;50.19;97988.63;5026604;28;20048;-61
2023/08/23 09:15:51;;;;;;;6.05;5.35;;;25.40;66.60;;;26.57;49.65;97990.56;5033118;28;20277;-61
2023/08/23 09:18:19;;;;;;;7.32;5.68;;;25.50;66.10;;;26.59;49.15;97990.34;5033608;28;20041;-61
2023/08/23 09:20:47;;;;;;;7.70;5.13;;;25.50;65.50;;;26.63;48.54;97996.94;5033894;28;20056;-61
2023/08/23 09:23:15;;;;;;;6.90;4.82;;;25.60;64.00;;;26.67;47.97;97998.06;5034067;28;20056;-61
2023/08/23 09:25:42;;;;;;;7.82;5.28;;;25.60;62.90;;;26.70;47.96;97992.94;5033864;28;20497;-61
2023/08/23 09:28:13;;;;;;;8.05;4.90;;;25.70;63.00;;;26.76;47.72;97988.34;5034684;28;20064;-60
2023/08/23 09:30:41;;;;;;;7.15;5.47;;;25.70;62.20;;;26.80;47.46;97986.75;5033751;28;20496;-60
2023/08/23 09:33:11;;;;;;;6.15;5.50;;;25.80;62.10;;;26.86;47.42;97987.63;5034187;28;20041;-60
2023/08/23 09:35:48;;;;;;;5.93;4.75;;;25.80;61.70;;;26.90;46.97;97986.84;5035924;28;20037;-61
2023/08/23 09:38:20;;;;;;;7.05;4.78;;;25.90;59.00;;;26.94;47.11;97987.16;5033568;28;20042;-65
2023/08/23 09:40:48;;;;;;;8.90;5.30;;;25.90;61.00;;;26.96;46.81;97984.97;5034472;28;20045;-61
2023/08/23 09:43:16;;;;;;;7.28;5.65;;;25.90;61.00;;;27.03;47.39;97984.78;5034380;28;20096;-61
2023/08/23 09:45:45;;;;;;;6.68;5.10;;;25.90;61.40;;;27.08;47.03;97980.19;5031004;28;20048;-59
2023/08/23 09:48:17;;;;;;;9.40;5.70;;;26.00;62.00;;;27.12;47.33;97975.00;5034266;28;20041;-60
2023/08/23 09:50:51;;;;;;;8.30;6.00;;;26.10;61.30;;;27.13;46.00;97967.66;5034455;28;20042;-61
2023/08/23 09:53:25;;;;;;;5.53;4.97;;;26.00;59.40;;;27.15;46.29;97969.03;5025506;28;20045;-60
2023/08/23 09:55:53;;;;;;;8.20;5.70;;;26.10;60.60;;;27.20;46.08;97971.81;5020455;28;20045;-60
2023/08/23 09:58:21;;;;;;;10.18;5.78;;;26.10;60.20;;;27.24;46.45;97975.69;5024628;28;20049;-60
2023/08/23 10:00:49;;;;;;;7.03;5.53;;;26.20;60.10;;;27.28;46.41;97970.53;5024038;28;20216;-60
2023/08/23 10:03:20;;;;;;;8.82;5.47;;;26.20;59.90;;;27.35;46.18;97973.03;5024892;28;20413;-60
2023/08/23 10:05:50;;;;;;;6.57;5.90;;;26.30;59.70;;;27.35;46.14;97967.56;5005323;28;20131;-60
2023/08/23 10:08:18;;;;;;;7.90;6.03;;;26.30;59.20;;;27.39;46.40;97963.22;5027443;28;20045;-60
2023/08/23 10:10:50;;;;;;;7.60;5.68;;;26.30;59.90;;;27.42;46.16;97966.25;5025086;28;20053;-60
2023/08/23 10:13:19;;;;;;;6.82;6.22;;;26.40;59.80;;;27.49;46.48;97968.75;5025803;28;20064;-60
2023/08/23 10:15:48;;;;;;;7.45;5.57;;;26.50;60.00;;;27.53;46.29;97958.97;5021011;28;20394;-59
2023/08/23 10:18:16;;;;;;;8.32;5.88;;;26.60;59.40;;;27.58;46.38;97963.63;5030845;28;20052;-60
2023/08/23 10:20:44;;;;;;;9.23;7.95;;;26.60;59.70;;;27.63;46.27;97959.00;5031751;28;20056;-60
2023/08/23 10:23:16;;;;;;;6.85;5.60;;;26.70;59.40;;;27.72;45.84;97964.78;5039303;28;20045;-60